Terminal Aerodrome Forecast
Issued by NWS Brownsville, TX

Home | Current Version | Previous Version | Text Only | Print | Product List | Glossary On
Versions: 1 2 3 4 5 6 7 8 9 10 11 12 13 14
000
FTUS44 KBRO 261120
TAFHRL
TAF
KHRL 261120Z 2612/2712 15008KT P6SM VCSH FEW025
      TEMPO 2612/2614 -RA BKN025
     FM261500 15015G21KT P6SM SCT040
     FM261700 16015G21KT P6SM VCSH SCT040
     FM270200 14006KT P6SM SKC=

USA.gov is the U.S. government's official web portal to all federal, state and local government web resources and services.